Terminal Aerodrome Forecast
Issued by NWS

Home | Current Version | Previous Version | Graphics & Text | Print | Product List | Glossary On
Versions: 1 2 3 4 5 6 7 8 9 10 11 12 13 14 15 16 17 18 19
000
FTUS43 KICT 302333
TAFSLN
TAF
KSLN 302333Z 0100/0124 20010KT P6SM SCT100 BKN250
     FM011300 23008KT P6SM VCTS BKN100CB
     FM011800 27010KT P6SM BKN100
     FM012100 35012KT P6SM SCT120=

USA.gov is the U.S. government's official web portal to all federal, state and local government web resources and services.